Terminal Aerodrome Forecast
Issued by NWS

Home | Current Version | Previous Version | Text Only | Print | Product List | Glossary On
Versions: 1 2 3 4 5 6 7 8 9 10 11 12 13 14 15 16 17 18
000
FTAK31 PAFA 231722
TAFAFA
TAF
PAFA 231722Z 2318/2424 VRB05KT P6SM FEW070 SCT090 BKN200
     FM232200 26009KT P6SM VCTS FEW050CB BKN070 BKN150
     FM240400 25005KT P6SM VCSH BKN080 BKN150=

USA.gov is the U.S. government's official web portal to all federal, state and local government web resources and services.